sensor_id;sensor_type;location;lat;lon;timestamp;P1;durP1;ratioP1;P2;durP2;ratioP2
30380;SDS011;17169;50.966;11.038;2023-06-19T00:02:31;8.75;;;5.78;;
30380;SDS011;17169;50.966;11.038;2023-06-19T00:05:34;10.10;;;5.60;;
30380;SDS011;17169;50.966;11.038;2023-06-19T00:08:36;8.40;;;5.90;;
30380;SDS011;17169;50.966;11.038;2023-06-19T00:11:38;11.25;;;6.30;;
30380;SDS011;17169;50.966;11.038;2023-06-19T00:14:41;10.07;;;6.13;;
30380;SDS011;17169;50.966;11.038;2023-06-19T00:17:45;9.82;;;6.03;;
30380;SDS011;17169;50.966;11.038;2023-06-19T00:20:47;9.55;;;5.53;;
30380;SDS011;17169;50.966;11.038;2023-06-19T00:23:49;11.85;;;6.07;;
30380;SDS011;17169;50.966;11.038;2023-06-19T00:26:52;8.35;;;6.03;;
30380;SDS011;17169;50.966;11.038;2023-06-19T00:29:54;11.55;;;6.47;;
30380;SDS011;17169;50.966;11.038;2023-06-19T00:33:04;8.23;;;6.05;;
30380;SDS011;17169;50.966;11.038;2023-06-19T00:36:08;7.80;;;5.28;;
30380;SDS011;17169;50.966;11.038;2023-06-19T00:39:11;9.07;;;6.03;;
30380;SDS011;17169;50.966;11.038;2023-06-19T00:42:13;9.43;;;6.30;;
30380;SDS011;17169;50.966;11.038;2023-06-19T00:45:16;10.30;;;7.20;;
30380;SDS011;17169;50.966;11.038;2023-06-19T00:48:20;7.72;;;5.70;;
30380;SDS011;17169;50.966;11.038;2023-06-19T00:51:22;8.32;;;5.78;;
30380;SDS011;17169;50.966;11.038;2023-06-19T00:54:25;9.18;;;5.82;;
30380;SDS011;17169;50.966;11.038;2023-06-19T00:57:27;11.73;;;6.32;;
30380;SDS011;17169;50.966;11.038;2023-06-19T01:00:31;8.88;;;5.97;;
30380;SDS011;17169;50.966;11.038;2023-06-19T01:03:35;8.02;;;5.57;;
30380;SDS011;17169;50.966;11.038;2023-06-19T01:06:40;11.40;;;5.90;;
30380;SDS011;17169;50.966;11.038;2023-06-19T01:09:48;8.13;;;5.80;;
30380;SDS011;17169;50.966;11.038;2023-06-19T01:12:56;12.75;;;5.70;;
30380;SDS011;17169;50.966;11.038;2023-06-19T01:16:02;8.68;;;6.07;;
30380;SDS011;17169;50.966;11.038;2023-06-19T01:19:08;9.90;;;6.40;;
30380;SDS011;17169;50.966;11.038;2023-06-19T01:22:23;7.90;;;5.85;;
30380;SDS011;17169;50.966;11.038;2023-06-19T01:25:26;9.25;;;5.68;;
30380;SDS011;17169;50.966;11.038;2023-06-19T01:28:28;12.07;;;6.00;;
30380;SDS011;17169;50.966;11.038;2023-06-19T01:31:31;8.73;;;5.55;;
30380;SDS011;17169;50.966;11.038;2023-06-19T01:34:38;9.30;;;6.00;;
30380;SDS011;17169;50.966;11.038;2023-06-19T01:37:42;9.70;;;6.57;;
30380;SDS011;17169;50.966;11.038;2023-06-19T01:43:48;7.80;;;5.57;;
30380;SDS011;17169;50.966;11.038;2023-06-19T01:46:52;8.88;;;6.10;;
30380;SDS011;17169;50.966;11.038;2023-06-19T01:49:54;9.13;;;5.97;;
30380;SDS011;17169;50.966;11.038;2023-06-19T01:52:58;8.35;;;6.20;;
30380;SDS011;17169;50.966;11.038;2023-06-19T01:56:01;8.52;;;5.50;;
30380;SDS011;17169;50.966;11.038;2023-06-19T01:59:03;8.23;;;5.82;;
30380;SDS011;17169;50.966;11.038;2023-06-19T02:02:06;10.00;;;6.55;;
30380;SDS011;17169;50.966;11.038;2023-06-19T02:05:08;7.10;;;5.60;;
30380;SDS011;17169;50.966;11.038;2023-06-19T02:08:12;8.70;;;5.70;;
30380;SDS011;17169;50.966;11.038;2023-06-19T02:11:14;9.07;;;5.15;;
30380;SDS011;17169;50.966;11.038;2023-06-19T02:14:17;9.82;;;5.32;;
30380;SDS011;17169;50.966;11.038;2023-06-19T02:17:19;10.52;;;5.95;;
30380;SDS011;17169;50.966;11.038;2023-06-19T02:20:22;9.98;;;5.97;;
30380;SDS011;17169;50.966;11.038;2023-06-19T02:23:26;8.27;;;5.80;;
30380;SDS011;17169;50.966;11.038;2023-06-19T02:26:28;10.27;;;5.65;;
30380;SDS011;17169;50.966;11.038;2023-06-19T02:29:30;8.02;;;5.97;;
30380;SDS011;17169;50.966;11.038;2023-06-19T02:32:34;9.57;;;5.65;;
30380;SDS011;17169;50.966;11.038;2023-06-19T02:35:36;9.85;;;6.25;;
30380;SDS011;17169;50.966;11.038;2023-06-19T02:38:40;9.75;;;5.90;;
30380;SDS011;17169;50.966;11.038;2023-06-19T02:41:43;8.80;;;6.20;;
30380;SDS011;17169;50.966;11.038;2023-06-19T02:44:47;8.18;;;5.70;;
30380;SDS011;17169;50.966;11.038;2023-06-19T02:47:49;7.80;;;5.50;;
30380;SDS011;17169;50.966;11.038;2023-06-19T02:50:52;7.13;;;5.50;;
30380;SDS011;17169;50.966;11.038;2023-06-19T02:53:56;11.90;;;5.60;;
30380;SDS011;17169;50.966;11.038;2023-06-19T02:56:58;11.55;;;6.43;;
30380;SDS011;17169;50.966;11.038;2023-06-19T03:00:01;8.70;;;5.88;;
30380;SDS011;17169;50.966;11.038;2023-06-19T03:06:08;9.18;;;6.13;;
30380;SDS011;17169;50.966;11.038;2023-06-19T03:09:12;9.70;;;6.68;;
30380;SDS011;17169;50.966;11.038;2023-06-19T03:12:14;8.45;;;5.82;;
30380;SDS011;17169;50.966;11.038;2023-06-19T03:15:17;12.43;;;7.20;;
30380;SDS011;17169;50.966;11.038;2023-06-19T03:18:19;9.15;;;6.03;;
30380;SDS011;17169;50.966;11.038;2023-06-19T03:21:21;10.35;;;6.43;;
30380;SDS011;17169;50.966;11.038;2023-06-19T03:24:25;8.80;;;6.38;;
30380;SDS011;17169;50.966;11.038;2023-06-19T03:27:27;8.73;;;6.60;;
30380;SDS011;17169;50.966;11.038;2023-06-19T03:30:30;7.80;;;5.97;;
30380;SDS011;17169;50.966;11.038;2023-06-19T03:33:33;8.73;;;6.28;;
30380;SDS011;17169;50.966;11.038;2023-06-19T03:36:35;10.00;;;6.40;;
30380;SDS011;17169;50.966;11.038;2023-06-19T03:39:39;9.35;;;6.05;;
30380;SDS011;17169;50.966;11.038;2023-06-19T03:42:42;9.00;;;6.25;;
30380;SDS011;17169;50.966;11.038;2023-06-19T03:45:44;10.65;;;5.95;;
30380;SDS011;17169;50.966;11.038;2023-06-19T03:48:46;9.20;;;6.70;;
30380;SDS011;17169;50.966;11.038;2023-06-19T03:51:49;8.82;;;6.35;;
30380;SDS011;17169;50.966;11.038;2023-06-19T03:54:52;9.48;;;5.93;;
30380;SDS011;17169;50.966;11.038;2023-06-19T03:57:55;9.88;;;6.85;;
30380;SDS011;17169;50.966;11.038;2023-06-19T04:00:57;9.73;;;6.70;;
30380;SDS011;17169;50.966;11.038;2023-06-19T04:04:00;11.48;;;6.35;;
30380;SDS011;17169;50.966;11.038;2023-06-19T04:07:02;10.48;;;6.85;;
30380;SDS011;17169;50.966;11.038;2023-06-19T04:10:07;9.80;;;6.63;;
30380;SDS011;17169;50.966;11.038;2023-06-19T04:13:09;10.38;;;6.90;;
30380;SDS011;17169;50.966;11.038;2023-06-19T04:16:12;11.48;;;7.18;;
30380;SDS011;17169;50.966;11.038;2023-06-19T04:19:14;16.95;;;6.88;;
30380;SDS011;17169;50.966;11.038;2023-06-19T04:22:17;10.05;;;6.72;;
30380;SDS011;17169;50.966;11.038;2023-06-19T04:25:20;11.00;;;7.53;;
30380;SDS011;17169;50.966;11.038;2023-06-19T04:28:23;12.25;;;6.40;;
30380;SDS011;17169;50.966;11.038;2023-06-19T04:31:26;10.60;;;6.53;;
30380;SDS011;17169;50.966;11.038;2023-06-19T04:34:29;11.38;;;6.78;;
30380;SDS011;17169;50.966;11.038;2023-06-19T04:37:32;12.05;;;6.78;;
30380;SDS011;17169;50.966;11.038;2023-06-19T04:40:36;13.52;;;7.15;;
30380;SDS011;17169;50.966;11.038;2023-06-19T04:43:39;15.18;;;7.75;;
30380;SDS011;17169;50.966;11.038;2023-06-19T04:46:42;13.95;;;6.82;;
30380;SDS011;17169;50.966;11.038;2023-06-19T04:49:45;14.45;;;7.57;;
30380;SDS011;17169;50.966;11.038;2023-06-19T04:52:48;10.00;;;6.85;;
30380;SDS011;17169;50.966;11.038;2023-06-19T04:55:52;12.48;;;6.95;;
30380;SDS011;17169;50.966;11.038;2023-06-19T04:58:55;11.45;;;6.75;;
30380;SDS011;17169;50.966;11.038;2023-06-19T05:02:00;8.70;;;7.10;;
30380;SDS011;17169;50.966;11.038;2023-06-19T05:05:02;10.43;;;7.30;;
30380;SDS011;17169;50.966;11.038;2023-06-19T05:08:05;10.25;;;6.82;;
30380;SDS011;17169;50.966;11.038;2023-06-19T05:11:08;11.23;;;6.53;;
30380;SDS011;17169;50.966;11.038;2023-06-19T05:14:11;9.65;;;6.95;;
30380;SDS011;17169;50.966;11.038;2023-06-19T05:17:14;10.95;;;7.10;;
30380;SDS011;17169;50.966;11.038;2023-06-19T05:20:17;11.48;;;7.20;;
30380;SDS011;17169;50.966;11.038;2023-06-19T05:23:19;11.27;;;6.90;;
30380;SDS011;17169;50.966;11.038;2023-06-19T05:26:23;11.10;;;6.70;;
30380;SDS011;17169;50.966;11.038;2023-06-19T05:29:26;10.70;;;6.70;;
30380;SDS011;17169;50.966;11.038;2023-06-19T05:32:30;11.35;;;7.47;;
30380;SDS011;17169;50.966;11.038;2023-06-19T05:35:32;13.93;;;7.70;;
30380;SDS011;17169;50.966;11.038;2023-06-19T05:38:34;16.70;;;8.65;;
30380;SDS011;17169;50.966;11.038;2023-06-19T05:41:38;12.40;;;8.13;;
30380;SDS011;17169;50.966;11.038;2023-06-19T05:44:40;10.93;;;8.07;;
30380;SDS011;17169;50.966;11.038;2023-06-19T05:47:43;12.32;;;8.00;;
30380;SDS011;17169;50.966;11.038;2023-06-19T05:50:45;14.05;;;8.77;;
30380;SDS011;17169;50.966;11.038;2023-06-19T05:53:47;12.70;;;7.68;;
30380;SDS011;17169;50.966;11.038;2023-06-19T05:56:52;10.85;;;8.18;;
30380;SDS011;17169;50.966;11.038;2023-06-19T05:59:54;16.10;;;8.65;;
30380;SDS011;17169;50.966;11.038;2023-06-19T06:02:56;15.10;;;9.20;;
30380;SDS011;17169;50.966;11.038;2023-06-19T06:06:00;17.40;;;9.88;;
30380;SDS011;17169;50.966;11.038;2023-06-19T06:09:04;12.95;;;8.02;;
30380;SDS011;17169;50.966;11.038;2023-06-19T06:12:08;14.73;;;7.40;;
30380;SDS011;17169;50.966;11.038;2023-06-19T06:15:10;9.93;;;7.60;;
30380;SDS011;17169;50.966;11.038;2023-06-19T06:18:13;10.13;;;7.45;;
30380;SDS011;17169;50.966;11.038;2023-06-19T06:21:15;17.13;;;7.43;;
30380;SDS011;17169;50.966;11.038;2023-06-19T06:24:17;11.38;;;7.35;;
30380;SDS011;17169;50.966;11.038;2023-06-19T06:27:21;12.23;;;7.93;;
30380;SDS011;17169;50.966;11.038;2023-06-19T06:30:23;12.93;;;6.88;;
30380;SDS011;17169;50.966;11.038;2023-06-19T06:33:28;9.80;;;6.80;;
30380;SDS011;17169;50.966;11.038;2023-06-19T06:36:30;11.82;;;6.72;;
30380;SDS011;17169;50.966;11.038;2023-06-19T06:39:32;16.50;;;7.75;;
30380;SDS011;17169;50.966;11.038;2023-06-19T06:42:36;10.77;;;7.43;;
30380;SDS011;17169;50.966;11.038;2023-06-19T06:45:39;10.68;;;6.78;;
30380;SDS011;17169;50.966;11.038;2023-06-19T06:48:42;10.55;;;6.30;;
30380;SDS011;17169;50.966;11.038;2023-06-19T06:51:45;10.40;;;6.10;;
30380;SDS011;17169;50.966;11.038;2023-06-19T06:54:47;8.88;;;6.43;;
30380;SDS011;17169;50.966;11.038;2023-06-19T06:57:51;18.20;;;6.93;;
30380;SDS011;17169;50.966;11.038;2023-06-19T07:00:53;15.82;;;6.85;;
30380;SDS011;17169;50.966;11.038;2023-06-19T07:03:56;12.20;;;7.00;;
30380;SDS011;17169;50.966;11.038;2023-06-19T07:06:59;12.60;;;7.28;;
30380;SDS011;17169;50.966;11.038;2023-06-19T07:10:02;21.60;;;7.85;;
30380;SDS011;17169;50.966;11.038;2023-06-19T07:13:06;14.25;;;6.50;;
30380;SDS011;17169;50.966;11.038;2023-06-19T07:16:09;16.13;;;6.60;;
30380;SDS011;17169;50.966;11.038;2023-06-19T07:19:12;16.35;;;6.63;;
30380;SDS011;17169;50.966;11.038;2023-06-19T07:22:14;13.10;;;7.85;;
30380;SDS011;17169;50.966;11.038;2023-06-19T07:25:16;14.73;;;6.32;;
30380;SDS011;17169;50.966;11.038;2023-06-19T07:28:20;14.30;;;7.03;;
30380;SDS011;17169;50.966;11.038;2023-06-19T07:31:23;15.98;;;7.35;;
30380;SDS011;17169;50.966;11.038;2023-06-19T07:34:25;15.88;;;7.88;;
30380;SDS011;17169;50.966;11.038;2023-06-19T07:37:27;16.88;;;7.72;;
30380;SDS011;17169;50.966;11.038;2023-06-19T07:40:30;11.80;;;7.10;;
30380;SDS011;17169;50.966;11.038;2023-06-19T07:43:33;8.18;;;6.22;;
30380;SDS011;17169;50.966;11.038;2023-06-19T07:46:36;9.88;;;7.05;;
30380;SDS011;17169;50.966;11.038;2023-06-19T07:49:38;8.98;;;6.80;;
30380;SDS011;17169;50.966;11.038;2023-06-19T07:52:41;9.00;;;6.32;;
30380;SDS011;17169;50.966;11.038;2023-06-19T07:55:43;12.55;;;7.57;;
30380;SDS011;17169;50.966;11.038;2023-06-19T07:58:47;10.18;;;7.32;;
30380;SDS011;17169;50.966;11.038;2023-06-19T08:01:49;9.95;;;7.03;;
30380;SDS011;17169;50.966;11.038;2023-06-19T08:04:51;9.93;;;7.05;;
30380;SDS011;17169;50.966;11.038;2023-06-19T08:07:54;8.80;;;7.03;;
30380;SDS011;17169;50.966;11.038;2023-06-19T08:10:57;10.32;;;7.43;;
30380;SDS011;17169;50.966;11.038;2023-06-19T08:14:01;9.43;;;6.68;;
30380;SDS011;17169;50.966;11.038;2023-06-19T08:17:03;14.27;;;7.18;;
30380;SDS011;17169;50.966;11.038;2023-06-19T08:20:06;12.30;;;7.20;;
30380;SDS011;17169;50.966;11.038;2023-06-19T08:23:10;10.43;;;6.95;;
30380;SDS011;17169;50.966;11.038;2023-06-19T08:26:12;12.75;;;7.28;;
30380;SDS011;17169;50.966;11.038;2023-06-19T08:29:16;11.00;;;7.20;;
30380;SDS011;17169;50.966;11.038;2023-06-19T08:32:19;9.80;;;7.57;;
30380;SDS011;17169;50.966;11.038;2023-06-19T08:35:21;9.25;;;7.07;;
30380;SDS011;17169;50.966;11.038;2023-06-19T08:38:24;11.20;;;6.55;;
30380;SDS011;17169;50.966;11.038;2023-06-19T08:41:26;11.00;;;6.47;;
30380;SDS011;17169;50.966;11.038;2023-06-19T08:44:30;10.07;;;7.03;;
30380;SDS011;17169;50.966;11.038;2023-06-19T08:47:32;10.40;;;6.78;;
30380;SDS011;17169;50.966;11.038;2023-06-19T08:50:35;15.23;;;7.07;;
30380;SDS011;17169;50.966;11.038;2023-06-19T08:53:43;10.32;;;7.25;;
30380;SDS011;17169;50.966;11.038;2023-06-19T08:56:46;8.80;;;6.78;;
30380;SDS011;17169;50.966;11.038;2023-06-19T08:59:51;10.43;;;6.93;;
30380;SDS011;17169;50.966;11.038;2023-06-19T09:02:59;11.40;;;6.15;;
30380;SDS011;17169;50.966;11.038;2023-06-19T09:06:03;11.63;;;7.53;;
30380;SDS011;17169;50.966;11.038;2023-06-19T09:09:05;8.95;;;6.93;;
30380;SDS011;17169;50.966;11.038;2023-06-19T09:12:12;10.77;;;6.18;;
30380;SDS011;17169;50.966;11.038;2023-06-19T09:15:16;8.88;;;6.60;;
30380;SDS011;17169;50.966;11.038;2023-06-19T09:18:18;9.55;;;6.72;;
30380;SDS011;17169;50.966;11.038;2023-06-19T09:21:21;11.95;;;6.93;;
30380;SDS011;17169;50.966;11.038;2023-06-19T09:24:23;13.18;;;5.93;;
30380;SDS011;17169;50.966;11.038;2023-06-19T09:27:34;9.82;;;6.72;;
30380;SDS011;17169;50.966;11.038;2023-06-19T09:30:37;11.82;;;6.15;;
30380;SDS011;17169;50.966;11.038;2023-06-19T09:33:40;12.95;;;6.65;;
30380;SDS011;17169;50.966;11.038;2023-06-19T09:36:42;8.65;;;6.30;;
30380;SDS011;17169;50.966;11.038;2023-06-19T09:39:47;8.55;;;5.70;;
30380;SDS011;17169;50.966;11.038;2023-06-19T09:42:54;7.85;;;5.93;;
30380;SDS011;17169;50.966;11.038;2023-06-19T09:45:59;10.40;;;5.65;;
30380;SDS011;17169;50.966;11.038;2023-06-19T09:49:03;8.73;;;5.53;;
30380;SDS011;17169;50.966;11.038;2023-06-19T09:55:11;8.45;;;6.20;;
30380;SDS011;17169;50.966;11.038;2023-06-19T09:58:14;8.40;;;5.20;;
30380;SDS011;17169;50.966;11.038;2023-06-19T10:01:18;8.10;;;5.32;;
30380;SDS011;17169;50.966;11.038;2023-06-19T10:04:21;7.75;;;5.25;;
30380;SDS011;17169;50.966;11.038;2023-06-19T10:07:25;7.45;;;5.50;;
30380;SDS011;17169;50.966;11.038;2023-06-19T10:10:33;8.88;;;5.18;;
30380;SDS011;17169;50.966;11.038;2023-06-19T10:13:37;6.57;;;4.80;;
30380;SDS011;17169;50.966;11.038;2023-06-19T10:16:43;7.25;;;5.28;;
30380;SDS011;17169;50.966;11.038;2023-06-19T10:19:49;6.57;;;5.25;;
30380;SDS011;17169;50.966;11.038;2023-06-19T10:22:53;7.03;;;5.13;;
30380;SDS011;17169;50.966;11.038;2023-06-19T10:25:59;10.95;;;5.18;;
30380;SDS011;17169;50.966;11.038;2023-06-19T10:29:06;7.68;;;5.40;;
30380;SDS011;17169;50.966;11.038;2023-06-19T10:32:17;7.43;;;5.43;;
30380;SDS011;17169;50.966;11.038;2023-06-19T10:35:19;6.57;;;4.80;;
30380;SDS011;17169;50.966;11.038;2023-06-19T10:38:24;8.10;;;4.88;;
30380;SDS011;17169;50.966;11.038;2023-06-19T10:41:27;7.38;;;5.32;;
30380;SDS011;17169;50.966;11.038;2023-06-19T10:44:29;7.32;;;4.70;;
30380;SDS011;17169;50.966;11.038;2023-06-19T10:47:33;7.35;;;4.95;;
30380;SDS011;17169;50.966;11.038;2023-06-19T10:50:36;5.90;;;4.57;;
30380;SDS011;17169;50.966;11.038;2023-06-19T10:53:41;6.85;;;4.60;;
30380;SDS011;17169;50.966;11.038;2023-06-19T10:56:43;7.47;;;4.97;;
30380;SDS011;17169;50.966;11.038;2023-06-19T10:59:50;7.72;;;5.00;;
30380;SDS011;17169;50.966;11.038;2023-06-19T11:02:55;7.10;;;4.75;;
30380;SDS011;17169;50.966;11.038;2023-06-19T11:05:58;6.40;;;4.75;;
30380;SDS011;17169;50.966;11.038;2023-06-19T11:09:00;7.68;;;4.75;;
30380;SDS011;17169;50.966;11.038;2023-06-19T11:12:05;9.15;;;5.20;;
30380;SDS011;17169;50.966;11.038;2023-06-19T11:15:09;7.33;;;4.80;;
30380;SDS011;17169;50.966;11.038;2023-06-19T11:18:14;8.17;;;5.37;;
30380;SDS011;17169;50.966;11.038;2023-06-19T11:21:17;7.90;;;5.43;;
30380;SDS011;17169;50.966;11.038;2023-06-19T11:24:20;8.40;;;4.53;;
30380;SDS011;17169;50.966;11.038;2023-06-19T11:27:24;6.63;;;4.72;;
30380;SDS011;17169;50.966;11.038;2023-06-19T11:30:32;6.85;;;5.07;;
30380;SDS011;17169;50.966;11.038;2023-06-19T11:33:37;7.55;;;4.68;;
30380;SDS011;17169;50.966;11.038;2023-06-19T11:36:39;10.15;;;4.88;;
30380;SDS011;17169;50.966;11.038;2023-06-19T11:39:43;6.88;;;4.18;;
30380;SDS011;17169;50.966;11.038;2023-06-19T11:42:51;7.88;;;4.70;;
30380;SDS011;17169;50.966;11.038;2023-06-19T11:45:54;6.63;;;4.72;;
30380;SDS011;17169;50.966;11.038;2023-06-19T11:49:08;6.15;;;4.93;;
30380;SDS011;17169;50.966;11.038;2023-06-19T11:52:11;6.40;;;4.60;;
30380;SDS011;17169;50.966;11.038;2023-06-19T11:55:14;9.63;;;4.15;;
30380;SDS011;17169;50.966;11.038;2023-06-19T11:58:17;8.27;;;4.88;;
30380;SDS011;17169;50.966;11.038;2023-06-19T12:01:21;5.30;;;4.03;;
30380;SDS011;17169;50.966;11.038;2023-06-19T12:04:25;7.13;;;4.35;;
30380;SDS011;17169;50.966;11.038;2023-06-19T12:07:27;6.50;;;4.72;;
30380;SDS011;17169;50.966;11.038;2023-06-19T12:10:30;5.40;;;4.40;;
30380;SDS011;17169;50.966;11.038;2023-06-19T12:13:32;7.05;;;4.10;;
30380;SDS011;17169;50.966;11.038;2023-06-19T12:16:35;6.53;;;4.40;;
30380;SDS011;17169;50.966;11.038;2023-06-19T12:19:38;5.82;;;4.40;;
30380;SDS011;17169;50.966;11.038;2023-06-19T12:22:41;12.10;;;4.60;;
30380;SDS011;17169;50.966;11.038;2023-06-19T12:25:44;7.35;;;4.80;;
30380;SDS011;17169;50.966;11.038;2023-06-19T12:28:46;6.38;;;5.30;;
30380;SDS011;17169;50.966;11.038;2023-06-19T12:31:48;10.63;;;5.07;;
30380;SDS011;17169;50.966;11.038;2023-06-19T12:34:52;6.72;;;5.10;;
30380;SDS011;17169;50.966;11.038;2023-06-19T12:37:55;6.75;;;4.55;;
30380;SDS011;17169;50.966;11.038;2023-06-19T12:40:57;10.20;;;5.03;;
30380;SDS011;17169;50.966;11.038;2023-06-19T12:44:00;7.80;;;4.45;;
30380;SDS011;17169;50.966;11.038;2023-06-19T12:47:02;7.78;;;4.57;;
30380;SDS011;17169;50.966;11.038;2023-06-19T12:50:07;6.32;;;5.03;;
30380;SDS011;17169;50.966;11.038;2023-06-19T12:53:10;6.07;;;4.60;;
30380;SDS011;17169;50.966;11.038;2023-06-19T12:56:13;6.65;;;4.88;;
30380;SDS011;17169;50.966;11.038;2023-06-19T12:59:15;6.72;;;4.63;;
30380;SDS011;17169;50.966;11.038;2023-06-19T13:02:18;7.60;;;4.75;;
30380;SDS011;17169;50.966;11.038;2023-06-19T13:05:22;8.23;;;4.43;;
30380;SDS011;17169;50.966;11.038;2023-06-19T13:08:24;7.37;;;5.00;;
30380;SDS011;17169;50.966;11.038;2023-06-19T13:11:26;6.50;;;4.80;;
30380;SDS011;17169;50.966;11.038;2023-06-19T13:14:29;11.55;;;4.90;;
30380;SDS011;17169;50.966;11.038;2023-06-19T13:17:32;7.82;;;4.70;;
30380;SDS011;17169;50.966;11.038;2023-06-19T13:20:36;6.45;;;4.55;;
30380;SDS011;17169;50.966;11.038;2023-06-19T13:23:38;7.67;;;4.57;;
30380;SDS011;17169;50.966;11.038;2023-06-19T13:26:40;7.03;;;5.40;;
30380;SDS011;17169;50.966;11.038;2023-06-19T13:29:45;6.45;;;4.68;;
30380;SDS011;17169;50.966;11.038;2023-06-19T13:32:47;9.13;;;5.35;;
30380;SDS011;17169;50.966;11.038;2023-06-19T13:35:51;14.52;;;5.13;;
30380;SDS011;17169;50.966;11.038;2023-06-19T13:38:54;5.28;;;4.03;;
30380;SDS011;17169;50.966;11.038;2023-06-19T13:41:56;9.52;;;4.43;;
30380;SDS011;17169;50.966;11.038;2023-06-19T13:45:01;4.68;;;3.97;;
30380;SDS011;17169;50.966;11.038;2023-06-19T13:48:03;5.30;;;3.85;;
30380;SDS011;17169;50.966;11.038;2023-06-19T13:51:07;8.52;;;4.25;;
30380;SDS011;17169;50.966;11.038;2023-06-19T13:54:10;6.50;;;4.60;;
30380;SDS011;17169;50.966;11.038;2023-06-19T13:57:13;6.30;;;4.40;;
30380;SDS011;17169;50.966;11.038;2023-06-19T14:00:16;8.63;;;4.70;;
30380;SDS011;17169;50.966;11.038;2023-06-19T14:03:18;6.05;;;4.30;;
30380;SDS011;17169;50.966;11.038;2023-06-19T14:06:22;8.43;;;4.05;;
30380;SDS011;17169;50.966;11.038;2023-06-19T14:09:24;6.43;;;4.53;;
30380;SDS011;17169;50.966;11.038;2023-06-19T14:12:27;11.27;;;4.63;;
30380;SDS011;17169;50.966;11.038;2023-06-19T14:15:29;10.13;;;4.10;;
30380;SDS011;17169;50.966;11.038;2023-06-19T14:18:31;7.97;;;4.40;;
30380;SDS011;17169;50.966;11.038;2023-06-19T14:21:37;6.35;;;4.65;;
30380;SDS011;17169;50.966;11.038;2023-06-19T14:24:39;9.30;;;5.10;;
30380;SDS011;17169;50.966;11.038;2023-06-19T14:27:41;8.65;;;4.35;;
30380;SDS011;17169;50.966;11.038;2023-06-19T14:30:44;7.75;;;4.25;;
30380;SDS011;17169;50.966;11.038;2023-06-19T14:33:46;9.07;;;4.80;;
30380;SDS011;17169;50.966;11.038;2023-06-19T14:36:50;8.27;;;3.90;;
30380;SDS011;17169;50.966;11.038;2023-06-19T14:39:52;12.13;;;4.75;;
30380;SDS011;17169;50.966;11.038;2023-06-19T14:42:55;7.13;;;4.95;;
30380;SDS011;17169;50.966;11.038;2023-06-19T14:45:57;6.35;;;4.40;;
30380;SDS011;17169;50.966;11.038;2023-06-19T14:49:00;9.73;;;4.38;;
30380;SDS011;17169;50.966;11.038;2023-06-19T14:52:04;9.55;;;4.68;;
30380;SDS011;17169;50.966;11.038;2023-06-19T14:55:07;8.77;;;4.75;;
30380;SDS011;17169;50.966;11.038;2023-06-19T14:58:12;9.60;;;4.68;;
30380;SDS011;17169;50.966;11.038;2023-06-19T15:01:14;5.70;;;4.50;;
30380;SDS011;17169;50.966;11.038;2023-06-19T15:04:17;7.40;;;4.78;;
30380;SDS011;17169;50.966;11.038;2023-06-19T15:07:21;7.00;;;4.90;;
30380;SDS011;17169;50.966;11.038;2023-06-19T15:10:23;10.97;;;5.23;;
30380;SDS011;17169;50.966;11.038;2023-06-19T15:13:25;6.38;;;4.80;;
30380;SDS011;17169;50.966;11.038;2023-06-19T15:16:28;6.57;;;4.63;;
30380;SDS011;17169;50.966;11.038;2023-06-19T15:19:30;5.93;;;4.70;;
30380;SDS011;17169;50.966;11.038;2023-06-19T15:22:34;6.72;;;4.97;;
30380;SDS011;17169;50.966;11.038;2023-06-19T15:25:37;9.25;;;4.22;;
30380;SDS011;17169;50.966;11.038;2023-06-19T15:28:39;9.38;;;4.10;;
30380;SDS011;17169;50.966;11.038;2023-06-19T15:31:44;5.75;;;4.00;;
30380;SDS011;17169;50.966;11.038;2023-06-19T15:34:47;7.93;;;4.30;;
30380;SDS011;17169;50.966;11.038;2023-06-19T15:37:51;5.30;;;4.10;;
30380;SDS011;17169;50.966;11.038;2023-06-19T15:43:55;5.43;;;4.00;;
30380;SDS011;17169;50.966;11.038;2023-06-19T15:46:57;5.35;;;4.00;;
30380;SDS011;17169;50.966;11.038;2023-06-19T15:50:00;6.00;;;3.90;;
30380;SDS011;17169;50.966;11.038;2023-06-19T15:53:04;6.90;;;3.88;;
30380;SDS011;17169;50.966;11.038;2023-06-19T15:56:06;5.05;;;3.95;;
30380;SDS011;17169;50.966;11.038;2023-06-19T15:59:08;6.22;;;3.85;;
30380;SDS011;17169;50.966;11.038;2023-06-19T16:02:11;8.27;;;4.28;;
30380;SDS011;17169;50.966;11.038;2023-06-19T16:05:13;9.85;;;3.88;;
30380;SDS011;17169;50.966;11.038;2023-06-19T16:08:18;5.33;;;3.50;;
30380;SDS011;17169;50.966;11.038;2023-06-19T16:11:21;6.70;;;4.13;;
30380;SDS011;17169;50.966;11.038;2023-06-19T16:14:23;7.85;;;4.45;;
30380;SDS011;17169;50.966;11.038;2023-06-19T16:17:25;11.27;;;4.10;;
30380;SDS011;17169;50.966;11.038;2023-06-19T16:20:28;9.38;;;4.10;;
30380;SDS011;17169;50.966;11.038;2023-06-19T16:23:31;6.60;;;4.30;;
30380;SDS011;17169;50.966;11.038;2023-06-19T16:26:34;5.57;;;4.10;;
30380;SDS011;17169;50.966;11.038;2023-06-19T16:29:36;9.63;;;4.38;;
30380;SDS011;17169;50.966;11.038;2023-06-19T16:32:38;7.43;;;5.03;;
30380;SDS011;17169;50.966;11.038;2023-06-19T16:35:41;6.85;;;4.68;;
30380;SDS011;17169;50.966;11.038;2023-06-19T16:38:44;8.00;;;4.72;;
30380;SDS011;17169;50.966;11.038;2023-06-19T16:41:47;6.50;;;4.45;;
30380;SDS011;17169;50.966;11.038;2023-06-19T16:44:49;7.80;;;4.18;;
30380;SDS011;17169;50.966;11.038;2023-06-19T16:47:51;6.90;;;4.97;;
30380;SDS011;17169;50.966;11.038;2023-06-19T16:50:54;8.63;;;4.22;;
30380;SDS011;17169;50.966;11.038;2023-06-19T16:53:58;7.18;;;4.47;;
30380;SDS011;17169;50.966;11.038;2023-06-19T16:57:01;7.78;;;4.55;;
30380;SDS011;17169;50.966;11.038;2023-06-19T17:00:03;7.32;;;4.38;;
30380;SDS011;17169;50.966;11.038;2023-06-19T17:03:06;5.82;;;4.38;;
30380;SDS011;17169;50.966;11.038;2023-06-19T17:06:09;7.55;;;4.50;;
30380;SDS011;17169;50.966;11.038;2023-06-19T17:09:12;6.53;;;4.30;;
30380;SDS011;17169;50.966;11.038;2023-06-19T17:12:15;7.83;;;4.33;;
30380;SDS011;17169;50.966;11.038;2023-06-19T17:15:17;5.78;;;3.95;;
30380;SDS011;17169;50.966;11.038;2023-06-19T17:18:20;5.30;;;3.80;;
30380;SDS011;17169;50.966;11.038;2023-06-19T17:21:22;5.93;;;3.97;;
30380;SDS011;17169;50.966;11.038;2023-06-19T17:24:26;7.55;;;3.95;;
30380;SDS011;17169;50.966;11.038;2023-06-19T17:27:28;6.03;;;4.05;;
30380;SDS011;17169;50.966;11.038;2023-06-19T17:30:30;8.13;;;4.28;;
30380;SDS011;17169;50.966;11.038;2023-06-19T17:33:33;8.75;;;3.97;;
30380;SDS011;17169;50.966;11.038;2023-06-19T17:36:35;7.15;;;5.03;;
30380;SDS011;17169;50.966;11.038;2023-06-19T17:39:39;6.90;;;3.97;;
30380;SDS011;17169;50.966;11.038;2023-06-19T17:42:42;5.80;;;4.03;;
30380;SDS011;17169;50.966;11.038;2023-06-19T17:45:45;5.40;;;3.85;;
30380;SDS011;17169;50.966;11.038;2023-06-19T17:48:47;7.03;;;4.72;;
30380;SDS011;17169;50.966;11.038;2023-06-19T17:51:50;7.80;;;4.30;;
30380;SDS011;17169;50.966;11.038;2023-06-19T17:54:53;7.07;;;4.35;;
30380;SDS011;17169;50.966;11.038;2023-06-19T17:57:56;10.13;;;4.25;;
30380;SDS011;17169;50.966;11.038;2023-06-19T18:00:58;11.43;;;4.25;;
30380;SDS011;17169;50.966;11.038;2023-06-19T18:04:00;6.53;;;4.00;;
30380;SDS011;17169;50.966;11.038;2023-06-19T18:07:03;5.35;;;3.88;;
30380;SDS011;17169;50.966;11.038;2023-06-19T18:10:07;6.55;;;4.15;;
30380;SDS011;17169;50.966;11.038;2023-06-19T18:13:10;7.47;;;4.00;;
30380;SDS011;17169;50.966;11.038;2023-06-19T18:16:12;8.15;;;4.20;;